Terminal Aerodrome Forecast
Issued by NWS

Home | Current Version | Previous Version | Text Only | Print | Product List | Glossary On
Versions: 1 2 3 4 5 6 7 8 9 10 11 12 13 14 15 16 17 18 19 20
000
FTUS45 KBOU 251734
TAFBJC
TAF
KBJC 251734Z 2518/2618 35009KT P6SM FEW120 SCT200
     FM251900 03009KT P6SM FEW080 SCT150 BKN220
     FM252200 10010KT P6SM SCT080 BKN120
      TEMPO 2522/2602 VRB15G25KT -TSRA BKN060CB
     FM260600 17011KT P6SM -SHRA SCT020 BKN050
     FM261000 19010KT P6SM VCSH SCT020 BKN050
     FM261700 16008KT P6SM VCSH SCT050 BKN120=

USA.gov is the U.S. government's official web portal to all federal, state and local government web resources and services.